createdAt,value
2019-04-01T00:00:53.945Z,1021.30
2019-04-01T00:01:53.941Z,1021.36
2019-04-01T00:02:53.887Z,1021.30
2019-04-01T00:03:53.897Z,1021.33
2019-04-01T00:04:53.867Z,1021.30
2019-04-01T00:05:53.863Z,1021.42
2019-04-01T00:06:53.882Z,1021.40
2019-04-01T00:07:53.836Z,1021.40
2019-04-01T00:08:53.844Z,1021.39
2019-04-01T00:09:53.826Z,1021.46
2019-04-01T00:10:53.801Z,1021.46
2019-04-01T00:11:53.811Z,1021.50
2019-04-01T00:12:53.786Z,1021.50
2019-04-01T00:13:53.778Z,1021.55
2019-04-01T00:14:53.773Z,1021.52
2019-04-01T00:15:53.743Z,1021.54
2019-04-01T00:16:53.783Z,1021.51
2019-04-01T00:17:53.727Z,1021.50
2019-04-01T00:19:02.831Z,1021.50
2019-04-01T00:19:54.703Z,1021.46
2019-04-01T00:20:53.695Z,1021.44
2019-04-01T00:21:53.701Z,1021.48
2019-04-01T00:22:53.781Z,1021.51
2019-04-01T00:23:53.666Z,1021.52
2019-04-01T00:24:53.667Z,1021.49
2019-04-01T00:25:53.636Z,1021.47
2019-04-01T00:26:53.660Z,1021.43
2019-04-01T00:27:53.635Z,1021.42
2019-04-01T00:28:53.618Z,1021.41
2019-04-01T00:29:53.594Z,1021.43
2019-04-01T00:30:53.582Z,1021.44
2019-04-01T00:31:53.586Z,1021.45
2019-04-01T00:32:53.567Z,1021.40
2019-04-01T00:33:53.560Z,1021.38
2019-04-01T00:34:53.543Z,1021.39
2019-04-01T00:35:53.531Z,1021.38
2019-04-01T00:36:53.548Z,1021.38
2019-04-01T00:37:53.504Z,1021.39
2019-04-01T00:38:53.495Z,1021.45
2019-04-01T00:39:53.664Z,1021.41
2019-04-01T00:40:53.497Z,1021.47
2019-04-01T00:41:53.462Z,1021.45
2019-04-01T00:42:53.480Z,1021.45
2019-04-01T00:43:53.443Z,1021.47
2019-04-01T00:44:53.445Z,1021.47
2019-04-01T00:45:53.513Z,1021.45
2019-04-01T00:46:53.411Z,1021.45
2019-04-01T00:47:53.419Z,1021.47
2019-04-01T00:48:53.416Z,1021.50
2019-04-01T00:49:53.389Z,1021.49
2019-04-01T00:50:53.370Z,1021.50
2019-04-01T00:51:53.373Z,1021.44
2019-04-01T00:52:53.419Z,1021.43
2019-04-01T00:53:53.332Z,1021.44
2019-04-01T00:54:53.324Z,1021.41
2019-04-01T00:55:53.309Z,1021.43
2019-04-01T00:56:53.306Z,1021.49
2019-04-01T00:57:53.315Z,1021.50
2019-04-01T00:58:53.274Z,1021.47
2019-04-01T00:59:53.285Z,1021.47
2019-04-01T01:00:53.258Z,1021.53
2019-04-01T01:01:53.251Z,1021.46
2019-04-01T01:02:53.239Z,1021.42
2019-04-01T01:03:53.248Z,1021.43
2019-04-01T01:04:53.214Z,1021.43
2019-04-01T01:05:53.245Z,1021.45
2019-04-01T01:06:53.211Z,1021.47
2019-04-01T01:07:53.181Z,1021.48
2019-04-01T01:08:53.186Z,1021.46
2019-04-01T01:09:53.172Z,1021.47
2019-04-01T01:10:53.146Z,1021.44
2019-04-01T01:11:53.152Z,1021.44
2019-04-01T01:12:53.114Z,1021.45
2019-04-01T01:13:53.128Z,1021.45
2019-04-01T01:14:53.120Z,1021.43
2019-04-01T01:15:53.094Z,1021.39
2019-04-01T01:16:53.080Z,1021.45
2019-04-01T01:17:53.082Z,1021.47
2019-04-01T01:18:53.115Z,1021.46
2019-04-01T01:19:53.054Z,1021.45
2019-04-01T01:20:53.027Z,1021.48
2019-04-01T01:21:53.018Z,1021.49
2019-04-01T01:22:53.006Z,1021.48
2019-04-01T01:23:53.026Z,1021.44
2019-04-01T01:24:52.988Z,1021.46
2019-04-01T01:25:52.972Z,1021.45
2019-04-01T01:26:52.970Z,1021.49
2019-04-01T01:27:52.986Z,1021.54
2019-04-01T01:28:52.982Z,1021.49
2019-04-01T01:29:52.928Z,1021.52
2019-04-01T01:30:52.929Z,1021.51
2019-04-01T01:31:52.908Z,1021.49
2019-04-01T01:32:52.899Z,1021.50
2019-04-01T01:33:52.915Z,1021.50
2019-04-01T01:34:52.901Z,1021.49
2019-04-01T01:35:52.868Z,1021.45
2019-04-01T01:36:52.866Z,1021.46
2019-04-01T01:37:52.840Z,1021.46
2019-04-01T01:38:52.834Z,1021.49
2019-04-01T01:39:53.104Z,1021.52
2019-04-01T01:40:52.807Z,1021.57
2019-04-01T01:41:52.799Z,1021.55
2019-04-01T01:42:52.809Z,1021.51
2019-04-01T01:43:52.774Z,1021.55
2019-04-01T01:44:52.782Z,1021.52
2019-04-01T01:45:52.782Z,1021.51
2019-04-01T01:46:52.740Z,1021.51
2019-04-01T01:47:52.737Z,1021.53
2019-04-01T01:48:52.718Z,1021.52
2019-04-01T01:49:52.733Z,1021.59
2019-04-01T01:50:52.698Z,1021.54
2019-04-01T01:51:52.715Z,1021.53
2019-04-01T01:52:52.672Z,1021.59
2019-04-01T01:53:52.688Z,1021.55
2019-04-01T01:54:52.696Z,1021.54
2019-04-01T01:55:52.647Z,1021.57
2019-04-01T01:56:52.632Z,1021.57
2019-04-01T01:57:52.642Z,1021.55
2019-04-01T01:58:52.615Z,1021.63
2019-04-01T01:59:52.623Z,1021.61
2019-04-01T02:00:52.584Z,1021.63
2019-04-01T02:01:52.586Z,1021.61
2019-04-01T02:02:52.561Z,1021.61
2019-04-01T02:03:52.572Z,1021.59
2019-04-01T02:04:52.558Z,1021.64
2019-04-01T02:05:52.530Z,1021.61
2019-04-01T02:06:52.521Z,1021.57
2019-04-01T02:07:52.543Z,1021.59
2019-04-01T02:08:52.501Z,1021.61
2019-04-01T02:09:52.699Z,1021.59
2019-04-01T02:10:52.532Z,1021.60
2019-04-01T02:11:52.471Z,1021.60
2019-04-01T02:12:52.487Z,1021.61
2019-04-01T02:13:52.447Z,1021.59
2019-04-01T02:14:52.479Z,1021.56
2019-04-01T02:15:52.431Z,1021.57
2019-04-01T02:16:52.454Z,1021.58
2019-04-01T02:17:52.408Z,1021.61
2019-04-01T02:18:52.383Z,1021.62
2019-04-01T02:19:52.391Z,1021.67
2019-04-01T02:20:52.379Z,1021.59
2019-04-01T02:21:52.394Z,1021.59
2019-04-01T02:22:52.343Z,1021.59
2019-04-01T02:23:52.323Z,1021.63
2019-04-01T02:24:52.348Z,1021.64
2019-04-01T02:25:52.325Z,1021.60
2019-04-01T02:26:52.300Z,1021.61
2019-04-01T02:27:52.301Z,1021.60
2019-04-01T02:28:52.275Z,1021.61
2019-04-01T02:29:52.291Z,1021.64
2019-04-01T02:30:52.256Z,1021.59
2019-04-01T02:31:52.258Z,1021.64
2019-04-01T02:32:52.227Z,1021.66
2019-04-01T02:33:52.253Z,1021.68
2019-04-01T02:34:52.223Z,1021.68
2019-04-01T02:35:52.188Z,1021.65
2019-04-01T02:36:52.185Z,1021.67
2019-04-01T02:37:52.174Z,1021.67
2019-04-01T02:38:52.169Z,1021.67
2019-04-01T02:39:52.201Z,1021.68
2019-04-01T02:40:52.136Z,1021.68
2019-04-01T02:41:52.123Z,1021.68
2019-04-01T02:42:52.117Z,1021.64
2019-04-01T02:43:52.119Z,1021.67
2019-04-01T02:44:52.096Z,1021.67
2019-04-01T02:45:52.124Z,1021.69
2019-04-01T02:46:52.077Z,1021.67
2019-04-01T02:47:52.068Z,1021.72
2019-04-01T02:48:52.053Z,1021.66
2019-04-01T02:49:52.045Z,1021.70
2019-04-01T02:50:52.053Z,1021.71
2019-04-01T02:51:52.018Z,1021.69
2019-04-01T02:52:52.009Z,1021.70
2019-04-01T02:53:52.007Z,1021.67
2019-04-01T02:54:52.084Z,1021.61
2019-04-01T02:55:51.991Z,1021.66
2019-04-01T02:56:51.960Z,1021.64
2019-04-01T02:57:51.955Z,1021.63
2019-04-01T02:58:51.934Z,1021.63
2019-04-01T02:59:51.937Z,1021.68
2019-04-01T03:00:51.947Z,1021.67
2019-04-01T03:01:51.949Z,1021.67
2019-04-01T03:02:51.893Z,1021.62
2019-04-01T03:03:51.885Z,1021.65
2019-04-01T03:04:51.879Z,1021.65
2019-04-01T03:05:51.882Z,1021.66
2019-04-01T03:06:51.857Z,1021.68
2019-04-01T03:07:51.839Z,1021.72
2019-04-01T03:08:51.829Z,1021.69
2019-04-01T03:09:51.830Z,1021.68
2019-04-01T03:10:51.838Z,1021.78
2019-04-01T03:11:51.792Z,1021.71
2019-04-01T03:12:51.803Z,1021.75
2019-04-01T03:13:51.767Z,1021.73
2019-04-01T03:14:51.776Z,1021.73
2019-04-01T03:15:51.773Z,1021.69
2019-04-01T03:16:51.742Z,1021.75
2019-04-01T03:17:51.740Z,1021.72
2019-04-01T03:18:51.755Z,1021.78
2019-04-01T03:19:51.699Z,1021.79
2019-04-01T03:20:51.709Z,1021.79
2019-04-01T03:21:51.713Z,1021.77
2019-04-01T03:22:51.673Z,1021.79
2019-04-01T03:23:51.684Z,1021.70
2019-04-01T03:24:51.648Z,1021.70
2019-04-01T03:25:51.681Z,1021.65
2019-04-01T03:26:51.638Z,1021.67
2019-04-01T03:27:51.625Z,1021.72
2019-04-01T03:28:51.612Z,1021.71
2019-04-01T03:29:51.598Z,1021.77
2019-04-01T03:30:51.598Z,1021.79
2019-04-01T03:31:51.593Z,1021.75
2019-04-01T03:32:51.563Z,1021.76
2019-04-01T03:33:51.555Z,1021.69
2019-04-01T03:34:51.539Z,1021.67
2019-04-01T03:35:51.516Z,1021.73
2019-04-01T03:36:51.558Z,1021.69
2019-04-01T03:37:51.507Z,1021.69
2019-04-01T03:38:51.495Z,1021.71
2019-04-01T03:39:51.486Z,1021.68
2019-04-01T03:40:51.490Z,1021.69
2019-04-01T03:41:51.497Z,1021.70
2019-04-01T03:42:51.450Z,1021.77
2019-04-01T03:43:51.438Z,1021.77
2019-04-01T03:44:55.148Z,1021.79
2019-04-01T03:45:51.421Z,1021.74
2019-04-01T03:46:51.577Z,1021.75
2019-04-01T03:47:51.397Z,1021.77
2019-04-01T03:48:51.376Z,1021.76
2019-04-01T03:49:51.372Z,1021.76
2019-04-01T03:50:51.381Z,1021.75
2019-04-01T03:51:51.367Z,1021.75
2019-04-01T03:52:51.331Z,1021.77
2019-04-01T03:53:51.336Z,1021.74
2019-04-01T03:54:51.313Z,1021.77
2019-04-01T03:55:51.306Z,1021.74
2019-04-01T03:56:51.320Z,1021.74
2019-04-01T03:57:51.292Z,1021.73
2019-04-01T03:58:51.269Z,1021.70
2019-04-01T03:59:51.266Z,1021.72
2019-04-01T04:00:51.262Z,1021.68
2019-04-01T04:01:51.264Z,1021.72
2019-04-01T04:02:51.227Z,1021.72
2019-04-01T04:03:51.218Z,1021.72
2019-04-01T04:04:51.199Z,1021.75
2019-04-01T04:05:51.186Z,1021.73
2019-04-01T04:06:51.225Z,1021.74
2019-04-01T04:07:51.182Z,1021.73
2019-04-01T04:08:51.165Z,1021.74
2019-04-01T04:09:51.147Z,1021.71
2019-04-01T04:10:51.141Z,1021.70
2019-04-01T04:11:51.149Z,1021.73
2019-04-01T04:12:51.161Z,1021.73
2019-04-01T04:13:51.100Z,1021.78
2019-04-01T04:14:51.751Z,1021.77
2019-04-01T04:15:51.106Z,1021.75
2019-04-01T04:16:51.123Z,1021.72
2019-04-01T04:17:51.062Z,1021.78
2019-04-01T04:18:51.050Z,1021.74
2019-04-01T04:19:51.050Z,1021.79
2019-04-01T04:20:51.033Z,1021.81
2019-04-01T04:21:51.053Z,1021.82
2019-04-01T04:22:51.009Z,1021.80
2019-04-01T04:23:50.997Z,1021.81
2019-04-01T04:24:50.980Z,1021.79
2019-04-01T04:25:50.973Z,1021.80
2019-04-01T04:26:50.974Z,1021.86
2019-04-01T04:27:51.024Z,1021.88
2019-04-01T04:28:50.942Z,1021.88
2019-04-01T04:29:50.927Z,1021.88
2019-04-01T04:30:50.917Z,1021.83
2019-04-01T04:31:50.919Z,1021.82
2019-04-01T04:32:50.940Z,1021.81
2019-04-01T04:33:50.884Z,1021.81
2019-04-01T04:34:50.863Z,1021.86
2019-04-01T04:35:50.886Z,1021.89
2019-04-01T04:36:50.848Z,1021.92
2019-04-01T04:37:50.851Z,1021.96
2019-04-01T04:38:50.824Z,1021.94
2019-04-01T04:39:50.916Z,1021.90
2019-04-01T04:40:50.804Z,1021.91
2019-04-01T04:41:50.788Z,1021.86
2019-04-01T04:42:50.803Z,1021.91
2019-04-01T04:43:50.772Z,1021.92
2019-04-01T04:44:50.752Z,1021.93
2019-04-01T04:45:50.748Z,1021.93
2019-04-01T04:46:50.743Z,1021.92
2019-04-01T04:47:50.764Z,1021.98
2019-04-01T04:48:50.718Z,1021.98
2019-04-01T04:49:50.703Z,1021.97
2019-04-01T04:50:50.689Z,1021.97
2019-04-01T04:51:50.675Z,1022.02
2019-04-01T04:52:50.714Z,1022.00
2019-04-01T04:53:50.657Z,1021.95
2019-04-01T04:54:50.645Z,1022.00
2019-04-01T04:55:50.638Z,1022.03
2019-04-01T04:56:50.639Z,1022.03
2019-04-01T04:57:50.636Z,1022.05
2019-04-01T04:58:50.595Z,1022.00
2019-04-01T04:59:50.599Z,1022.04
2019-04-01T05:00:50.571Z,1022.05
2019-04-01T05:01:50.579Z,1022.06
2019-04-01T05:02:50.578Z,1022.02
2019-04-01T05:03:50.543Z,1022.05
2019-04-01T05:04:50.531Z,1022.10
2019-04-01T05:05:50.538Z,1022.07
2019-04-01T05:06:50.508Z,1022.10
2019-04-01T05:07:50.508Z,1022.09
2019-04-01T05:08:50.483Z,1022.10
2019-04-01T05:09:50.477Z,1022.11
2019-04-01T05:10:50.493Z,1022.12
2019-04-01T05:11:50.443Z,1022.12
2019-04-01T05:12:50.461Z,1022.13
2019-04-01T05:13:50.534Z,1022.15
2019-04-01T05:14:50.422Z,1022.12
2019-04-01T05:15:50.427Z,1022.16
2019-04-01T05:16:50.396Z,1022.19
2019-04-01T05:17:50.418Z,1022.22
2019-04-01T05:18:50.375Z,1022.20
2019-04-01T05:19:50.402Z,1022.28
2019-04-01T05:20:50.360Z,1022.28
2019-04-01T05:21:50.339Z,1022.33
2019-04-01T05:22:50.356Z,1022.20
2019-04-01T05:23:50.326Z,1022.32
2019-04-01T05:24:50.886Z,1022.38
2019-04-01T05:25:50.296Z,1022.33
2019-04-01T05:26:50.294Z,1022.29
2019-04-01T05:27:50.293Z,1022.31
2019-04-01T05:28:50.272Z,1022.29
2019-04-01T05:29:50.250Z,1022.32
2019-04-01T05:30:50.236Z,1022.34
2019-04-01T05:31:50.239Z,1022.35
2019-04-01T05:32:50.265Z,1022.35
2019-04-01T05:33:55.532Z,1022.36
2019-04-01T05:34:51.192Z,1022.37
2019-04-01T05:35:50.194Z,1022.40
2019-04-01T05:36:50.175Z,1022.37
2019-04-01T05:37:50.171Z,1022.42
2019-04-01T05:38:50.228Z,1022.41
2019-04-01T05:39:50.152Z,1022.45
2019-04-01T05:40:50.255Z,1022.45
2019-04-01T05:41:50.234Z,1022.42
2019-04-01T05:42:50.102Z,1022.41
2019-04-01T05:43:50.160Z,1022.37
2019-04-01T05:44:50.128Z,1022.39
2019-04-01T05:45:50.105Z,1022.38
2019-04-01T05:46:50.124Z,1022.42
2019-04-01T05:47:50.056Z,1022.41
2019-04-01T05:48:50.068Z,1022.45
2019-04-01T05:49:50.034Z,1022.44
2019-04-01T05:50:50.020Z,1022.46
2019-04-01T05:51:50.009Z,1022.46
2019-04-01T05:52:50.008Z,1022.41
2019-04-01T05:53:50.040Z,1022.49
2019-04-01T05:54:49.968Z,1022.51
2019-04-01T05:55:49.962Z,1022.52
2019-04-01T05:56:49.984Z,1022.53
2019-04-01T05:57:49.971Z,1022.48
2019-04-01T05:58:50.017Z,1022.55
2019-04-01T05:59:49.934Z,1022.51
2019-04-01T06:00:49.902Z,1022.48
2019-04-01T06:01:49.903Z,1022.43
2019-04-01T06:02:49.925Z,1022.48
2019-04-01T06:03:49.891Z,1022.49
2019-04-01T06:04:49.866Z,1022.47
2019-04-01T06:05:49.848Z,1022.50
2019-04-01T06:06:49.852Z,1022.53
2019-04-01T06:07:49.847Z,1022.53
2019-04-01T06:08:49.849Z,1022.55
2019-04-01T06:09:49.803Z,1022.56
2019-04-01T06:10:49.793Z,1022.49
2019-04-01T06:11:49.781Z,1022.52
2019-04-01T06:12:49.782Z,1022.53
2019-04-01T06:13:49.788Z,1022.53
2019-04-01T06:14:49.796Z,1022.55
2019-04-01T06:15:49.748Z,1022.54
2019-04-01T06:16:49.726Z,1022.55
2019-04-01T06:17:49.725Z,1022.56
2019-04-01T06:18:49.722Z,1022.57
2019-04-01T06:19:49.691Z,1022.56
2019-04-01T06:20:49.696Z,1022.60
2019-04-01T06:21:49.670Z,1022.52
2019-04-01T06:22:49.761Z,1022.50
2019-04-01T06:23:49.699Z,1022.52
2019-04-01T06:24:49.640Z,1022.55
2019-04-01T06:25:49.632Z,1022.54
2019-04-01T06:26:49.621Z,1022.56
2019-04-01T06:27:49.602Z,1022.57
2019-04-01T06:28:49.611Z,1022.62
2019-04-01T06:29:49.607Z,1022.61
2019-04-01T06:30:49.571Z,1022.58
2019-04-01T06:31:49.555Z,1022.61
2019-04-01T06:32:49.542Z,1022.63
2019-04-01T06:33:49.542Z,1022.59
2019-04-01T06:34:52.986Z,1022.61
2019-04-01T06:35:49.524Z,1022.62
2019-04-01T06:36:49.503Z,1022.62
2019-04-01T06:37:49.486Z,1022.59
2019-04-01T06:38:49.492Z,1022.59
2019-04-01T06:39:49.493Z,1022.62
2019-04-01T06:40:49.501Z,1022.63
2019-04-01T06:41:49.466Z,1022.66
2019-04-01T06:42:49.442Z,1022.67
2019-04-01T06:43:49.434Z,1022.68
2019-04-01T06:44:49.433Z,1022.73
2019-04-01T06:45:49.415Z,1022.66
2019-04-01T06:46:49.426Z,1022.71
2019-04-01T06:47:49.385Z,1022.70
2019-04-01T06:48:49.366Z,1022.69
2019-04-01T06:49:49.377Z,1022.67
2019-04-01T06:50:49.385Z,1022.73
2019-04-01T06:51:49.352Z,1022.71
2019-04-01T06:52:49.335Z,1022.74
2019-04-01T06:53:49.342Z,1022.76
2019-04-01T06:54:49.329Z,1022.77
2019-04-01T06:55:49.294Z,1022.78
2019-04-01T06:56:49.291Z,1022.77
2019-04-01T06:57:49.279Z,1022.76
2019-04-01T06:58:49.268Z,1022.76
2019-04-01T06:59:49.285Z,1022.76
2019-04-01T07:00:49.281Z,1022.82
2019-04-01T07:01:49.225Z,1022.81
2019-04-01T07:02:49.216Z,1022.80
2019-04-01T07:03:49.212Z,1022.80
2019-04-01T07:04:49.260Z,1022.82
2019-04-01T07:05:49.196Z,1022.83
2019-04-01T07:06:49.177Z,1022.84
2019-04-01T07:07:49.170Z,1022.85
2019-04-01T07:08:49.167Z,1022.85
2019-04-01T07:09:50.845Z,1022.83
2019-04-01T07:10:49.152Z,1022.87
2019-04-01T07:11:49.126Z,1022.83
2019-04-01T07:12:49.132Z,1022.85
2019-04-01T07:13:49.097Z,1022.79
2019-04-01T07:14:49.171Z,1022.87
2019-04-01T07:15:49.097Z,1022.85
2019-04-01T07:16:49.105Z,1022.85
2019-04-01T07:17:49.054Z,1022.86
2019-04-01T07:18:49.063Z,1022.88
2019-04-01T07:19:49.030Z,1022.92
2019-04-01T07:20:49.075Z,1022.90
2019-04-01T07:21:49.047Z,1022.90
2019-04-01T07:22:49.001Z,1022.92
2019-04-01T07:23:48.994Z,1022.86
2019-04-01T07:24:49.008Z,1022.89
2019-04-01T07:25:48.988Z,1022.91
2019-04-01T07:26:48.970Z,1022.93
2019-04-01T07:27:48.948Z,1022.92
2019-04-01T07:28:48.933Z,1022.90
2019-04-01T07:29:48.923Z,1022.91
2019-04-01T07:30:48.934Z,1022.91
2019-04-01T07:31:48.900Z,1022.92
2019-04-01T07:32:48.909Z,1022.95
2019-04-01T07:33:48.882Z,1022.94
2019-04-01T07:34:48.870Z,1022.91
2019-04-01T07:35:48.879Z,1022.93
2019-04-01T07:36:48.844Z,1022.86
2019-04-01T07:37:48.841Z,1022.88
2019-04-01T07:38:48.841Z,1022.91
2019-04-01T07:39:48.819Z,1022.93
2019-04-01T07:40:48.870Z,1022.90
2019-04-01T07:41:48.798Z,1022.90
2019-04-01T07:42:48.779Z,1022.86
2019-04-01T07:43:48.778Z,1022.95
2019-04-01T07:44:48.784Z,1022.95
2019-04-01T07:45:48.784Z,1022.91
2019-04-01T07:46:48.737Z,1022.90
2019-04-01T07:47:51.521Z,1022.92
2019-04-01T07:48:48.717Z,1022.90
2019-04-01T07:49:48.799Z,1022.90
2019-04-01T07:50:48.732Z,1022.89
2019-04-01T07:51:48.686Z,1022.89
2019-04-01T07:52:48.672Z,1022.89
2019-04-01T07:53:48.661Z,1022.88
2019-04-01T07:54:48.651Z,1022.90
2019-04-01T07:55:48.650Z,1022.93
2019-04-01T07:56:48.641Z,1022.94
2019-04-01T07:57:48.617Z,1022.92
2019-04-01T07:58:48.600Z,1022.93
2019-04-01T07:59:48.585Z,1022.97
2019-04-01T08:00:48.600Z,1022.91
2019-04-01T08:01:48.600Z,1022.94
2019-04-01T08:02:49.115Z,1022.98
2019-04-01T08:03:48.544Z,1022.93
2019-04-01T08:04:48.534Z,1022.96
2019-04-01T08:05:48.536Z,1022.95
2019-04-01T08:06:48.537Z,1023.00
2019-04-01T08:07:48.496Z,1023.00
2019-04-01T08:08:48.493Z,1022.99
2019-04-01T08:09:48.475Z,1023.02
2019-04-01T08:10:48.469Z,1023.01
2019-04-01T08:11:50.244Z,1022.99
2019-04-01T08:12:48.464Z,1023.00
2019-04-01T08:13:48.431Z,1023.00
2019-04-01T08:14:48.438Z,1023.02
2019-04-01T08:15:48.418Z,1022.98
2019-04-01T08:16:48.421Z,1022.98
2019-04-01T08:17:48.396Z,1023.00
2019-04-01T08:18:48.376Z,1023.04
2019-04-01T08:19:48.619Z,1022.97
2019-04-01T08:20:48.350Z,1023.01
2019-04-01T08:21:48.358Z,1023.04
2019-04-01T08:22:48.333Z,1023.00
2019-04-01T08:23:48.336Z,1023.05
2019-04-01T08:24:48.313Z,1023.05
2019-04-01T08:25:48.296Z,1022.99
2019-04-01T08:26:48.309Z,1023.00
2019-04-01T08:27:48.272Z,1022.96
2019-04-01T08:28:48.273Z,1022.94
2019-04-01T08:29:48.247Z,1022.95
2019-04-01T08:30:48.349Z,1022.95
2019-04-01T08:31:48.440Z,1022.92
2019-04-01T08:32:48.354Z,1022.91
2019-04-01T08:33:50.227Z,1022.93
2019-04-01T08:34:48.244Z,1022.93
2019-04-01T08:35:48.186Z,1022.90
2019-04-01T08:36:48.257Z,1022.88
2019-04-01T08:37:55.328Z,1022.86
2019-04-01T08:38:48.203Z,1022.95
2019-04-01T08:39:48.261Z,1022.92
2019-04-01T08:40:48.189Z,1022.96
2019-04-01T08:41:48.166Z,1022.96
2019-04-01T08:42:49.129Z,1022.96
2019-04-01T08:43:48.106Z,1022.91
2019-04-01T08:44:48.665Z,1022.92
2019-04-01T08:45:48.090Z,1022.91
2019-04-01T08:46:48.092Z,1022.97
2019-04-01T08:47:48.058Z,1022.87
2019-04-01T08:48:48.053Z,1022.89
2019-04-01T08:49:48.040Z,1022.93
2019-04-01T08:50:48.022Z,1022.94
2019-04-01T08:51:48.044Z,1022.88
2019-04-01T08:52:47.990Z,1022.89
2019-04-01T08:53:47.979Z,1022.89
2019-04-01T08:54:47.981Z,1022.82
2019-04-01T08:55:48.672Z,1022.82
2019-04-01T08:56:47.979Z,1022.82
2019-04-01T08:57:47.934Z,1022.83
2019-04-01T08:58:47.927Z,1022.85
2019-04-01T08:59:47.913Z,1022.88
2019-04-01T09:00:47.918Z,1022.86
2019-04-01T09:01:47.933Z,1022.86
2019-04-01T09:02:47.910Z,1022.87
2019-04-01T09:03:47.875Z,1022.86
2019-04-01T09:04:47.862Z,1022.79
2019-04-01T09:05:47.885Z,1022.81
2019-04-01T09:06:47.874Z,1022.81
2019-04-01T09:07:47.846Z,1022.74
2019-04-01T09:08:47.822Z,1022.77
2019-04-01T09:09:47.809Z,1022.80
2019-04-01T09:10:47.803Z,1022.86
2019-04-01T09:11:47.797Z,1022.79
2019-04-01T09:12:47.807Z,1022.80
2019-04-01T09:13:47.789Z,1022.79
2019-04-01T09:14:47.747Z,1022.82
2019-04-01T09:15:47.737Z,1022.72
2019-04-01T09:16:47.755Z,1022.76
2019-04-01T09:17:47.737Z,1022.82
2019-04-01T09:18:47.713Z,1022.80
2019-04-01T09:19:47.779Z,1022.79
2019-04-01T09:20:47.686Z,1022.76
2019-04-01T09:21:47.675Z,1022.72
2019-04-01T09:22:47.675Z,1022.71
2019-04-01T09:23:47.649Z,1022.71
2019-04-01T09:24:47.653Z,1022.68
2019-04-01T09:25:47.619Z,1022.71
2019-04-01T09:26:47.619Z,1022.69
2019-04-01T09:27:47.620Z,1022.68
2019-04-01T09:28:47.589Z,1022.74
2019-04-01T09:29:47.581Z,1022.72
2019-04-01T09:30:47.576Z,1022.71
2019-04-01T09:31:47.576Z,1022.73
2019-04-01T09:32:47.577Z,1022.64
2019-04-01T09:33:47.533Z,1022.64
2019-04-01T09:34:47.529Z,1022.67
2019-04-01T09:35:47.528Z,1022.65
2019-04-01T09:36:47.508Z,1022.61
2019-04-01T09:37:47.515Z,1022.64
2019-04-01T09:38:47.482Z,1022.57
2019-04-01T09:39:47.480Z,1022.70
2019-04-01T09:40:47.469Z,1022.63
2019-04-01T09:41:47.453Z,1022.66
2019-04-01T09:42:47.454Z,1022.63
2019-04-01T09:43:47.498Z,1022.63
2019-04-01T09:44:47.412Z,1022.67
2019-04-01T09:45:47.406Z,1022.69
2019-04-01T09:46:49.080Z,1022.64
2019-04-01T09:47:47.396Z,1022.59
2019-04-01T09:48:47.373Z,1022.60
2019-04-01T09:49:47.401Z,1022.55
2019-04-01T09:50:47.353Z,1022.62
2019-04-01T09:51:48.928Z,1022.59
2019-04-01T09:52:47.356Z,1022.58
2019-04-01T09:53:47.325Z,1022.55
2019-04-01T09:54:47.304Z,1022.57
2019-04-01T09:55:47.312Z,1022.48
2019-04-01T09:56:47.283Z,1022.44
2019-04-01T09:57:47.345Z,1022.45
2019-04-01T09:58:47.268Z,1022.40
2019-04-01T09:59:47.269Z,1022.43
2019-04-01T10:00:47.233Z,1022.45
2019-04-01T10:01:47.227Z,1022.43
2019-04-01T10:02:47.227Z,1022.43
2019-04-01T10:03:47.198Z,1022.35
2019-04-01T10:04:47.202Z,1022.39
2019-04-01T10:05:47.186Z,1022.38
2019-04-01T10:06:47.172Z,1022.30
2019-04-01T10:07:47.391Z,1022.38
2019-04-01T10:08:47.146Z,1022.32
2019-04-01T10:09:47.154Z,1022.39
2019-04-01T10:10:47.129Z,1022.35
2019-04-01T10:11:47.125Z,1022.28
2019-04-01T10:12:47.130Z,1022.27
2019-04-01T10:13:47.101Z,1022.35
2019-04-01T10:14:47.076Z,1022.28
2019-04-01T10:15:47.076Z,1022.32
2019-04-01T10:16:47.071Z,1022.32
2019-04-01T10:17:47.058Z,1022.25
2019-04-01T10:18:47.048Z,1022.29
2019-04-01T10:19:47.260Z,1022.45
2019-04-01T10:20:47.021Z,1022.55
2019-04-01T10:21:47.031Z,1022.63
2019-04-01T10:22:47.024Z,1022.74
2019-04-01T10:23:46.988Z,1022.69
2019-04-01T10:24:47.003Z,1022.67
2019-04-01T10:25:47.032Z,1022.71
2019-04-01T10:26:46.957Z,1022.73
2019-04-01T10:27:46.994Z,1022.77
2019-04-01T10:28:46.924Z,1022.69
2019-04-01T10:29:46.912Z,1022.68
2019-04-01T10:30:46.916Z,1022.69
2019-04-01T10:31:46.910Z,1022.72
2019-04-01T10:32:46.921Z,1022.68
2019-04-01T10:33:46.866Z,1022.63
2019-04-01T10:34:46.863Z,1022.58
2019-04-01T10:35:46.850Z,1022.64
2019-04-01T10:36:46.854Z,1022.68
2019-04-01T10:37:46.851Z,1022.62
2019-04-01T10:38:47.152Z,1022.71
2019-04-01T10:39:46.807Z,1022.75
2019-04-01T10:40:46.797Z,1022.76
2019-04-01T10:41:46.788Z,1022.74
2019-04-01T10:42:46.786Z,1022.70
2019-04-01T10:43:46.806Z,1022.70
2019-04-01T10:44:46.781Z,1022.73
2019-04-01T10:45:46.751Z,1022.69
2019-04-01T10:46:46.746Z,1022.65
2019-04-01T10:47:46.794Z,1022.65
2019-04-01T10:48:46.773Z,1022.71
2019-04-01T10:49:46.783Z,1022.61
2019-04-01T10:50:46.756Z,1022.60
2019-04-01T10:51:46.689Z,1022.63
2019-04-01T10:52:46.701Z,1022.64
2019-04-01T10:53:46.702Z,1022.58
2019-04-01T10:54:46.672Z,1022.61
2019-04-01T10:55:46.777Z,1022.64
2019-04-01T10:56:46.676Z,1022.63
2019-04-01T10:57:46.652Z,1022.60
2019-04-01T10:58:46.699Z,1022.54
2019-04-01T10:59:46.626Z,1022.63
2019-04-01T11:00:46.640Z,1022.63
2019-04-01T11:01:46.588Z,1022.59
2019-04-01T11:02:49.822Z,1022.52
2019-04-01T11:03:46.602Z,1022.51
2019-04-01T11:04:46.600Z,1022.53
2019-04-01T11:05:46.552Z,1022.52
2019-04-01T11:06:46.607Z,1022.55
2019-04-01T11:07:46.602Z,1022.53
2019-04-01T11:08:46.550Z,1022.51
2019-04-01T11:09:46.537Z,1022.46
2019-04-01T11:10:46.506Z,1022.48
2019-04-01T11:11:46.508Z,1022.44
2019-04-01T11:12:46.496Z,1022.42
2019-04-01T11:13:46.530Z,1022.45
2019-04-01T11:14:46.470Z,1022.44
2019-04-01T11:15:46.472Z,1022.39
2019-04-01T11:16:46.591Z,1022.42
2019-04-01T11:17:46.431Z,1022.38
2019-04-01T11:18:46.445Z,1022.32
2019-04-01T11:19:46.423Z,1022.26
2019-04-01T11:20:46.405Z,1022.21
2019-04-01T11:21:46.415Z,1022.00
2019-04-01T11:22:46.388Z,1021.94
2019-04-01T11:23:46.455Z,1021.93
2019-04-01T11:24:46.370Z,1021.78
2019-04-01T11:25:46.359Z,1021.81
2019-04-01T11:26:46.348Z,1021.79
2019-04-01T11:27:46.342Z,1021.78
2019-04-01T11:28:46.367Z,1021.71
2019-04-01T11:29:46.325Z,1021.69
2019-04-01T11:30:46.385Z,1021.73
2019-04-01T11:31:46.344Z,1021.71
2019-04-01T11:32:46.364Z,1021.70
2019-04-01T11:33:46.315Z,1021.68
2019-04-01T11:34:46.308Z,1021.68
2019-04-01T11:35:46.280Z,1021.63
2019-04-01T11:36:46.286Z,1021.63
2019-04-01T11:37:46.321Z,1021.64
2019-04-01T11:38:46.292Z,1021.62
2019-04-01T11:39:46.258Z,1021.56
2019-04-01T11:40:46.260Z,1021.57
2019-04-01T11:41:46.255Z,1021.66
2019-04-01T11:42:46.264Z,1021.65
2019-04-01T11:43:46.215Z,1021.69
2019-04-01T11:44:46.238Z,1021.75
2019-04-01T11:45:46.202Z,1021.77
2019-04-01T11:46:46.187Z,1021.75
2019-04-01T11:47:46.144Z,1021.73
2019-04-01T11:48:46.153Z,1021.82
2019-04-01T11:49:46.125Z,1021.80
2019-04-01T11:50:47.927Z,1021.71
2019-04-01T11:51:46.147Z,1021.74
2019-04-01T11:52:46.109Z,1021.71
2019-04-01T11:53:46.146Z,1021.68
2019-04-01T11:54:46.074Z,1021.73
2019-04-01T11:55:46.061Z,1021.71
2019-04-01T11:56:46.049Z,1021.67
2019-04-01T11:57:46.073Z,1021.65
2019-04-01T11:58:46.055Z,1021.62
2019-04-01T11:59:46.015Z,1021.53
2019-04-01T12:00:46.004Z,1021.44
2019-04-01T12:01:47.392Z,1021.42
2019-04-01T12:02:46.690Z,1021.28
2019-04-01T12:03:45.996Z,1021.24
2019-04-01T12:04:45.961Z,1021.24
2019-04-01T12:05:45.965Z,1021.17